DK-0008 weather

Holstebro Glider Field
Holstebro, Central Jutland, Denmark

Public forecast

Using degrees Celsius for public forecast. Weather courtesy of forecast.io.

Closest aviation weather report (METAR) to Holstebro Glider Field

Closest report is Karup Airport, 17.9 nm (33.2 km) E. Retrieved 2020/01/23 07:20 UTC (2 minutes ago):

EKKA 230720Z 23010KT 6000 BKN003 06/06 Q1029 TEMPO 1200 BKN002

Closest aviation forecast (TAF) to Holstebro Glider Field

Closest forecast is Karup Airport, 17.9 nm (33.2 km) E. Retrieved 2020/01/23 09:31 UTC (0 seconds ago):

TAF EKKA 230812Z 2309/2409 25008KT 1200 BR BKN002 TEMPO 2309/2316 3000 -DZ BKN006 BECMG 2316/2318 5000 BR BKN015 TEMPO 2318/2409 2500 -DZ BKN004